sensor_id;sensor_type;location;lat;lon;timestamp;P1;durP1;ratioP1;P2;durP2;ratioP2
9716;SDS011;4897;43.570;27.832;2022-07-12T00:00:39;3.58;;;1.80;;
9716;SDS011;4897;43.570;27.832;2022-07-12T00:03:08;3.05;;;1.48;;
9716;SDS011;4897;43.570;27.832;2022-07-12T00:05:35;5.57;;;1.40;;
9716;SDS011;4897;43.570;27.832;2022-07-12T00:08:02;3.70;;;1.48;;
9716;SDS011;4897;43.570;27.832;2022-07-12T00:10:31;3.03;;;1.55;;
9716;SDS011;4897;43.570;27.832;2022-07-12T00:12:58;5.75;;;1.80;;
9716;SDS011;4897;43.570;27.832;2022-07-12T00:15:25;1.98;;;1.30;;
9716;SDS011;4897;43.570;27.832;2022-07-12T00:17:52;2.75;;;1.40;;
9716;SDS011;4897;43.570;27.832;2022-07-12T00:20:21;2.40;;;1.60;;
9716;SDS011;4897;43.570;27.832;2022-07-12T00:22:48;2.92;;;1.60;;
9716;SDS011;4897;43.570;27.832;2022-07-12T00:25:15;4.47;;;1.40;;
9716;SDS011;4897;43.570;27.832;2022-07-12T00:27:41;3.42;;;1.50;;
9716;SDS011;4897;43.570;27.832;2022-07-12T00:30:09;7.28;;;1.60;;
9716;SDS011;4897;43.570;27.832;2022-07-12T00:32:36;2.20;;;1.30;;
9716;SDS011;4897;43.570;27.832;2022-07-12T00:35:04;2.63;;;1.40;;
9716;SDS011;4897;43.570;27.832;2022-07-12T00:37:33;3.03;;;1.83;;
9716;SDS011;4897;43.570;27.832;2022-07-12T00:40:00;4.43;;;1.40;;
9716;SDS011;4897;43.570;27.832;2022-07-12T00:42:27;2.17;;;1.42;;
9716;SDS011;4897;43.570;27.832;2022-07-12T00:44:54;2.42;;;1.67;;
9716;SDS011;4897;43.570;27.832;2022-07-12T00:47:28;4.47;;;1.35;;
9716;SDS011;4897;43.570;27.832;2022-07-12T00:50:02;3.58;;;1.52;;
9716;SDS011;4897;43.570;27.832;2022-07-12T00:52:30;2.90;;;1.60;;
9716;SDS011;4897;43.570;27.832;2022-07-12T00:54:59;3.38;;;1.30;;
9716;SDS011;4897;43.570;27.832;2022-07-12T00:57:26;4.60;;;1.40;;
9716;SDS011;4897;43.570;27.832;2022-07-12T00:59:53;3.03;;;1.58;;
9716;SDS011;4897;43.570;27.832;2022-07-12T01:02:23;4.38;;;1.27;;
9716;SDS011;4897;43.570;27.832;2022-07-12T01:04:54;5.05;;;1.50;;
9716;SDS011;4897;43.570;27.832;2022-07-12T01:07:25;1.58;;;1.35;;
9716;SDS011;4897;43.570;27.832;2022-07-12T01:09:52;3.10;;;1.38;;
9716;SDS011;4897;43.570;27.832;2022-07-12T01:12:21;2.10;;;1.30;;
9716;SDS011;4897;43.570;27.832;2022-07-12T01:14:50;1.35;;;1.20;;
9716;SDS011;4897;43.570;27.832;2022-07-12T01:17:18;3.20;;;1.60;;
9716;SDS011;4897;43.570;27.832;2022-07-12T01:19:47;2.60;;;1.45;;
9716;SDS011;4897;43.570;27.832;2022-07-12T01:22:17;3.30;;;1.50;;
9716;SDS011;4897;43.570;27.832;2022-07-12T01:24:46;1.92;;;1.40;;
9716;SDS011;4897;43.570;27.832;2022-07-12T01:27:13;1.75;;;1.42;;
9716;SDS011;4897;43.570;27.832;2022-07-12T01:29:40;2.05;;;1.30;;
9716;SDS011;4897;43.570;27.832;2022-07-12T01:32:07;5.45;;;1.55;;
9716;SDS011;4897;43.570;27.832;2022-07-12T01:34:48;2.85;;;1.48;;
9716;SDS011;4897;43.570;27.832;2022-07-12T01:37:17;8.25;;;3.70;;
9716;SDS011;4897;43.570;27.832;2022-07-12T01:39:48;7.95;;;1.83;;
9716;SDS011;4897;43.570;27.832;2022-07-12T01:42:17;6.60;;;2.53;;
9716;SDS011;4897;43.570;27.832;2022-07-12T01:44:44;5.13;;;2.28;;
9716;SDS011;4897;43.570;27.832;2022-07-12T01:47:11;5.32;;;1.80;;
9716;SDS011;4897;43.570;27.832;2022-07-12T01:49:41;2.35;;;1.67;;
9716;SDS011;4897;43.570;27.832;2022-07-12T01:52:11;8.77;;;2.00;;
9716;SDS011;4897;43.570;27.832;2022-07-12T01:54:38;7.85;;;1.90;;
9716;SDS011;4897;43.570;27.832;2022-07-12T01:57:07;2.80;;;1.83;;
9716;SDS011;4897;43.570;27.832;2022-07-12T01:59:34;9.50;;;2.20;;
9716;SDS011;4897;43.570;27.832;2022-07-12T02:02:02;11.43;;;2.42;;
9716;SDS011;4897;43.570;27.832;2022-07-12T02:04:29;7.60;;;2.13;;
9716;SDS011;4897;43.570;27.832;2022-07-12T02:06:56;5.20;;;1.95;;
9716;SDS011;4897;43.570;27.832;2022-07-12T02:09:23;3.58;;;1.88;;
9716;SDS011;4897;43.570;27.832;2022-07-12T02:11:50;1.90;;;1.40;;
9716;SDS011;4897;43.570;27.832;2022-07-12T02:14:22;3.13;;;1.48;;
9716;SDS011;4897;43.570;27.832;2022-07-12T02:16:49;2.58;;;1.30;;
9716;SDS011;4897;43.570;27.832;2022-07-12T02:19:16;7.00;;;1.60;;
9716;SDS011;4897;43.570;27.832;2022-07-12T02:21:43;1.58;;;1.30;;
9716;SDS011;4897;43.570;27.832;2022-07-12T02:24:12;5.38;;;1.58;;
9716;SDS011;4897;43.570;27.832;2022-07-12T02:26:39;4.80;;;1.58;;
9716;SDS011;4897;43.570;27.832;2022-07-12T02:29:06;1.75;;;1.40;;
9716;SDS011;4897;43.570;27.832;2022-07-12T02:31:34;5.93;;;2.15;;
9716;SDS011;4897;43.570;27.832;2022-07-12T02:34:01;3.53;;;1.58;;
9716;SDS011;4897;43.570;27.832;2022-07-12T02:36:29;2.38;;;1.60;;
9716;SDS011;4897;43.570;27.832;2022-07-12T02:38:57;3.53;;;1.83;;
9716;SDS011;4897;43.570;27.832;2022-07-12T02:41:27;2.35;;;1.60;;
9716;SDS011;4897;43.570;27.832;2022-07-12T02:43:54;3.65;;;1.75;;
9716;SDS011;4897;43.570;27.832;2022-07-12T02:46:21;3.63;;;2.05;;
9716;SDS011;4897;43.570;27.832;2022-07-12T02:48:52;4.47;;;1.70;;
9716;SDS011;4897;43.570;27.832;2022-07-12T02:51:19;5.00;;;1.90;;
9716;SDS011;4897;43.570;27.832;2022-07-12T02:53:50;8.00;;;2.30;;
9716;SDS011;4897;43.570;27.832;2022-07-12T02:56:17;8.50;;;2.03;;
9716;SDS011;4897;43.570;27.832;2022-07-12T02:58:44;10.98;;;2.08;;
9716;SDS011;4897;43.570;27.832;2022-07-12T03:01:11;7.95;;;2.20;;
9716;SDS011;4897;43.570;27.832;2022-07-12T03:03:39;7.82;;;2.20;;
9716;SDS011;4897;43.570;27.832;2022-07-12T03:06:07;9.57;;;2.20;;
9716;SDS011;4897;43.570;27.832;2022-07-12T03:08:34;4.70;;;2.25;;
9716;SDS011;4897;43.570;27.832;2022-07-12T03:11:01;5.88;;;2.13;;
9716;SDS011;4897;43.570;27.832;2022-07-12T03:13:28;3.25;;;1.98;;
9716;SDS011;4897;43.570;27.832;2022-07-12T03:15:55;5.40;;;1.40;;
9716;SDS011;4897;43.570;27.832;2022-07-12T03:18:22;5.32;;;1.67;;
9716;SDS011;4897;43.570;27.832;2022-07-12T03:20:49;7.38;;;1.55;;
9716;SDS011;4897;43.570;27.832;2022-07-12T03:23:17;2.42;;;1.45;;
9716;SDS011;4897;43.570;27.832;2022-07-12T03:25:44;4.53;;;1.70;;
9716;SDS011;4897;43.570;27.832;2022-07-12T03:28:11;3.58;;;1.75;;
9716;SDS011;4897;43.570;27.832;2022-07-12T03:30:38;2.28;;;1.60;;
9716;SDS011;4897;43.570;27.832;2022-07-12T03:33:05;6.28;;;1.80;;
9716;SDS011;4897;43.570;27.832;2022-07-12T03:35:33;4.95;;;1.50;;
9716;SDS011;4897;43.570;27.832;2022-07-12T03:38:00;9.85;;;2.10;;
9716;SDS011;4897;43.570;27.832;2022-07-12T03:40:33;5.45;;;1.80;;
9716;SDS011;4897;43.570;27.832;2022-07-12T03:43:00;4.50;;;1.90;;
9716;SDS011;4897;43.570;27.832;2022-07-12T03:45:27;2.45;;;1.70;;
9716;SDS011;4897;43.570;27.832;2022-07-12T03:47:54;4.95;;;2.42;;
9716;SDS011;4897;43.570;27.832;2022-07-12T03:50:21;3.20;;;2.00;;
9716;SDS011;4897;43.570;27.832;2022-07-12T03:52:48;3.05;;;1.98;;
9716;SDS011;4897;43.570;27.832;2022-07-12T03:55:15;4.57;;;2.30;;
9716;SDS011;4897;43.570;27.832;2022-07-12T03:57:44;3.45;;;2.10;;
9716;SDS011;4897;43.570;27.832;2022-07-12T04:00:11;5.22;;;2.05;;
9716;SDS011;4897;43.570;27.832;2022-07-12T04:02:39;4.57;;;2.10;;
9716;SDS011;4897;43.570;27.832;2022-07-12T04:05:07;5.53;;;1.70;;
9716;SDS011;4897;43.570;27.832;2022-07-12T04:07:36;5.15;;;1.77;;
9716;SDS011;4897;43.570;27.832;2022-07-12T04:10:04;2.60;;;1.40;;
9716;SDS011;4897;43.570;27.832;2022-07-12T04:12:33;2.13;;;1.60;;
9716;SDS011;4897;43.570;27.832;2022-07-12T04:15:01;2.33;;;1.75;;
9716;SDS011;4897;43.570;27.832;2022-07-12T04:17:28;2.15;;;1.45;;
9716;SDS011;4897;43.570;27.832;2022-07-12T04:19:55;5.60;;;1.70;;
9716;SDS011;4897;43.570;27.832;2022-07-12T04:22:22;5.57;;;1.52;;
9716;SDS011;4897;43.570;27.832;2022-07-12T04:24:49;1.90;;;1.52;;
9716;SDS011;4897;43.570;27.832;2022-07-12T04:27:16;2.97;;;1.67;;
9716;SDS011;4897;43.570;27.832;2022-07-12T04:29:43;2.38;;;1.77;;
9716;SDS011;4897;43.570;27.832;2022-07-12T04:32:12;2.42;;;1.70;;
9716;SDS011;4897;43.570;27.832;2022-07-12T04:34:42;2.42;;;1.60;;
9716;SDS011;4897;43.570;27.832;2022-07-12T04:37:09;2.72;;;1.77;;
9716;SDS011;4897;43.570;27.832;2022-07-12T04:39:36;3.97;;;1.67;;
9716;SDS011;4897;43.570;27.832;2022-07-12T04:42:03;2.50;;;1.45;;
9716;SDS011;4897;43.570;27.832;2022-07-12T04:44:30;1.60;;;1.33;;
9716;SDS011;4897;43.570;27.832;2022-07-12T04:46:57;1.70;;;1.40;;
9716;SDS011;4897;43.570;27.832;2022-07-12T04:49:26;3.45;;;1.55;;
9716;SDS011;4897;43.570;27.832;2022-07-12T04:51:52;4.18;;;1.65;;
9716;SDS011;4897;43.570;27.832;2022-07-12T04:54:19;2.45;;;1.70;;
9716;SDS011;4897;43.570;27.832;2022-07-12T04:56:46;2.25;;;1.42;;
9716;SDS011;4897;43.570;27.832;2022-07-12T04:59:13;2.40;;;1.30;;
9716;SDS011;4897;43.570;27.832;2022-07-12T05:01:40;2.67;;;1.77;;
9716;SDS011;4897;43.570;27.832;2022-07-12T05:04:07;2.05;;;1.45;;
9716;SDS011;4897;43.570;27.832;2022-07-12T05:06:42;5.03;;;1.77;;
9716;SDS011;4897;43.570;27.832;2022-07-12T05:09:10;2.22;;;1.45;;
9716;SDS011;4897;43.570;27.832;2022-07-12T05:11:37;4.72;;;1.60;;
9716;SDS011;4897;43.570;27.832;2022-07-12T05:14:12;2.13;;;1.40;;
9716;SDS011;4897;43.570;27.832;2022-07-12T05:16:39;5.65;;;1.60;;
9716;SDS011;4897;43.570;27.832;2022-07-12T05:19:06;1.80;;;1.60;;
9716;SDS011;4897;43.570;27.832;2022-07-12T05:21:33;6.55;;;1.83;;
9716;SDS011;4897;43.570;27.832;2022-07-12T05:24:02;3.42;;;1.70;;
9716;SDS011;4897;43.570;27.832;2022-07-12T05:26:29;3.30;;;1.60;;
9716;SDS011;4897;43.570;27.832;2022-07-12T05:28:56;3.88;;;1.65;;
9716;SDS011;4897;43.570;27.832;2022-07-12T05:31:23;4.30;;;1.60;;
9716;SDS011;4897;43.570;27.832;2022-07-12T05:33:50;7.93;;;2.00;;
9716;SDS011;4897;43.570;27.832;2022-07-12T05:36:17;4.07;;;1.95;;
9716;SDS011;4897;43.570;27.832;2022-07-12T05:38:44;2.03;;;1.60;;
9716;SDS011;4897;43.570;27.832;2022-07-12T05:41:12;3.67;;;1.77;;
9716;SDS011;4897;43.570;27.832;2022-07-12T05:43:39;2.13;;;1.50;;
9716;SDS011;4897;43.570;27.832;2022-07-12T05:46:06;4.93;;;1.75;;
9716;SDS011;4897;43.570;27.832;2022-07-12T05:48:34;7.47;;;1.75;;
9716;SDS011;4897;43.570;27.832;2022-07-12T05:51:01;2.92;;;1.85;;
9716;SDS011;4897;43.570;27.832;2022-07-12T05:53:42;5.88;;;1.60;;
9716;SDS011;4897;43.570;27.832;2022-07-12T05:56:16;4.68;;;1.70;;
9716;SDS011;4897;43.570;27.832;2022-07-12T05:58:46;2.22;;;1.67;;
9716;SDS011;4897;43.570;27.832;2022-07-12T06:01:13;5.80;;;1.70;;
9716;SDS011;4897;43.570;27.832;2022-07-12T06:03:39;2.75;;;1.70;;
9716;SDS011;4897;43.570;27.832;2022-07-12T06:06:06;4.32;;;1.88;;
9716;SDS011;4897;43.570;27.832;2022-07-12T06:08:33;7.65;;;1.98;;
9716;SDS011;4897;43.570;27.832;2022-07-12T06:11:00;6.20;;;1.65;;
9716;SDS011;4897;43.570;27.832;2022-07-12T06:13:29;4.95;;;1.65;;
9716;SDS011;4897;43.570;27.832;2022-07-12T06:15:56;6.40;;;1.80;;
9716;SDS011;4897;43.570;27.832;2022-07-12T06:18:24;4.15;;;3.13;;
9716;SDS011;4897;43.570;27.832;2022-07-12T06:20:51;27.80;;;5.38;;
9716;SDS011;4897;43.570;27.832;2022-07-12T06:23:18;6.22;;;1.90;;
9716;SDS011;4897;43.570;27.832;2022-07-12T06:25:45;6.63;;;1.85;;
9716;SDS011;4897;43.570;27.832;2022-07-12T06:28:12;2.88;;;2.00;;
9716;SDS011;4897;43.570;27.832;2022-07-12T06:30:40;2.08;;;1.85;;
9716;SDS011;4897;43.570;27.832;2022-07-12T06:33:07;4.55;;;1.60;;
9716;SDS011;4897;43.570;27.832;2022-07-12T06:35:34;2.13;;;1.50;;
9716;SDS011;4897;43.570;27.832;2022-07-12T06:38:01;4.32;;;1.70;;
9716;SDS011;4897;43.570;27.832;2022-07-12T06:40:28;7.90;;;1.80;;
9716;SDS011;4897;43.570;27.832;2022-07-12T06:42:55;4.03;;;1.73;;
9716;SDS011;4897;43.570;27.832;2022-07-12T06:45:25;4.63;;;1.70;;
9716;SDS011;4897;43.570;27.832;2022-07-12T06:47:53;2.05;;;1.63;;
9716;SDS011;4897;43.570;27.832;2022-07-12T06:50:20;4.28;;;1.70;;
9716;SDS011;4897;43.570;27.832;2022-07-12T06:52:47;3.00;;;1.60;;
9716;SDS011;4897;43.570;27.832;2022-07-12T06:55:14;7.03;;;2.17;;
9716;SDS011;4897;43.570;27.832;2022-07-12T06:57:41;2.72;;;2.00;;
9716;SDS011;4897;43.570;27.832;2022-07-12T07:00:08;7.32;;;1.60;;
9716;SDS011;4897;43.570;27.832;2022-07-12T07:02:37;3.42;;;1.77;;
9716;SDS011;4897;43.570;27.832;2022-07-12T07:05:06;2.92;;;1.60;;
9716;SDS011;4897;43.570;27.832;2022-07-12T07:07:34;5.28;;;1.85;;
9716;SDS011;4897;43.570;27.832;2022-07-12T07:10:00;3.05;;;1.70;;
9716;SDS011;4897;43.570;27.832;2022-07-12T07:12:27;3.30;;;1.60;;
9716;SDS011;4897;43.570;27.832;2022-07-12T07:14:54;5.15;;;1.70;;
9716;SDS011;4897;43.570;27.832;2022-07-12T07:17:21;2.65;;;1.85;;
9716;SDS011;4897;43.570;27.832;2022-07-12T07:19:48;2.50;;;1.83;;
9716;SDS011;4897;43.570;27.832;2022-07-12T07:22:17;3.75;;;2.10;;
9716;SDS011;4897;43.570;27.832;2022-07-12T07:24:44;4.13;;;1.83;;
9716;SDS011;4897;43.570;27.832;2022-07-12T07:27:11;3.38;;;1.38;;
9716;SDS011;4897;43.570;27.832;2022-07-12T07:29:38;3.97;;;1.92;;
9716;SDS011;4897;43.570;27.832;2022-07-12T07:32:22;3.22;;;1.80;;
9716;SDS011;4897;43.570;27.832;2022-07-12T07:34:49;3.55;;;1.80;;
9716;SDS011;4897;43.570;27.832;2022-07-12T07:37:17;4.47;;;2.10;;
9716;SDS011;4897;43.570;27.832;2022-07-12T07:39:44;3.45;;;1.88;;
9716;SDS011;4897;43.570;27.832;2022-07-12T07:42:11;2.55;;;1.65;;
9716;SDS011;4897;43.570;27.832;2022-07-12T07:44:38;4.55;;;2.17;;
9716;SDS011;4897;43.570;27.832;2022-07-12T07:47:05;4.88;;;1.63;;
9716;SDS011;4897;43.570;27.832;2022-07-12T07:49:32;2.97;;;1.67;;
9716;SDS011;4897;43.570;27.832;2022-07-12T07:51:59;8.07;;;1.70;;
9716;SDS011;4897;43.570;27.832;2022-07-12T07:54:27;4.22;;;1.40;;
9716;SDS011;4897;43.570;27.832;2022-07-12T07:56:59;2.35;;;1.65;;
9716;SDS011;4897;43.570;27.832;2022-07-12T07:59:32;2.10;;;1.60;;
9716;SDS011;4897;43.570;27.832;2022-07-12T08:01:59;2.35;;;1.60;;
9716;SDS011;4897;43.570;27.832;2022-07-12T08:04:26;3.97;;;1.70;;
9716;SDS011;4897;43.570;27.832;2022-07-12T08:06:53;3.65;;;1.88;;
9716;SDS011;4897;43.570;27.832;2022-07-12T08:09:21;6.63;;;1.65;;
9716;SDS011;4897;43.570;27.832;2022-07-12T08:11:50;4.93;;;1.88;;
9716;SDS011;4897;43.570;27.832;2022-07-12T08:14:16;9.73;;;1.90;;
9716;SDS011;4897;43.570;27.832;2022-07-12T08:16:43;5.03;;;2.00;;
9716;SDS011;4897;43.570;27.832;2022-07-12T08:19:13;4.32;;;1.85;;
9716;SDS011;4897;43.570;27.832;2022-07-12T08:21:40;6.00;;;1.80;;
9716;SDS011;4897;43.570;27.832;2022-07-12T08:24:07;2.30;;;1.85;;
9716;SDS011;4897;43.570;27.832;2022-07-12T08:26:34;4.00;;;1.98;;
9716;SDS011;4897;43.570;27.832;2022-07-12T08:29:02;3.13;;;2.10;;
9716;SDS011;4897;43.570;27.832;2022-07-12T08:31:29;2.70;;;1.63;;
9716;SDS011;4897;43.570;27.832;2022-07-12T08:33:56;6.55;;;2.25;;
9716;SDS011;4897;43.570;27.832;2022-07-12T08:36:23;6.05;;;1.70;;
9716;SDS011;4897;43.570;27.832;2022-07-12T08:38:50;6.00;;;2.03;;
9716;SDS011;4897;43.570;27.832;2022-07-12T08:41:17;2.67;;;1.60;;
9716;SDS011;4897;43.570;27.832;2022-07-12T08:43:46;3.33;;;1.70;;
9716;SDS011;4897;43.570;27.832;2022-07-12T08:46:15;4.40;;;2.10;;
9716;SDS011;4897;43.570;27.832;2022-07-12T08:48:44;3.88;;;2.03;;
9716;SDS011;4897;43.570;27.832;2022-07-12T08:51:12;3.38;;;1.58;;
9716;SDS011;4897;43.570;27.832;2022-07-12T08:53:40;3.25;;;1.80;;
9716;SDS011;4897;43.570;27.832;2022-07-12T08:56:07;5.93;;;1.73;;
9716;SDS011;4897;43.570;27.832;2022-07-12T08:59:14;4.75;;;2.00;;
9716;SDS011;4897;43.570;27.832;2022-07-12T09:01:46;6.13;;;1.92;;
9716;SDS011;4897;43.570;27.832;2022-07-12T09:04:16;5.25;;;2.00;;
9716;SDS011;4897;43.570;27.832;2022-07-12T09:06:43;2.72;;;1.90;;
9716;SDS011;4897;43.570;27.832;2022-07-12T09:09:11;3.85;;;1.88;;
9716;SDS011;4897;43.570;27.832;2022-07-12T09:11:51;3.97;;;1.80;;
9716;SDS011;4897;43.570;27.832;2022-07-12T09:14:19;3.92;;;2.20;;
9716;SDS011;4897;43.570;27.832;2022-07-12T09:16:59;2.65;;;1.70;;
9716;SDS011;4897;43.570;27.832;2022-07-12T09:19:30;2.47;;;1.75;;
9716;SDS011;4897;43.570;27.832;2022-07-12T09:22:00;6.32;;;1.95;;
9716;SDS011;4897;43.570;27.832;2022-07-12T09:24:27;5.47;;;1.75;;
9716;SDS011;4897;43.570;27.832;2022-07-12T09:26:56;2.95;;;1.80;;
9716;SDS011;4897;43.570;27.832;2022-07-12T09:29:24;2.63;;;1.90;;
9716;SDS011;4897;43.570;27.832;2022-07-12T09:31:51;2.58;;;1.77;;
9716;SDS011;4897;43.570;27.832;2022-07-12T09:34:37;2.95;;;1.95;;
9716;SDS011;4897;43.570;27.832;2022-07-12T09:37:22;2.78;;;1.92;;
9716;SDS011;4897;43.570;27.832;2022-07-12T09:39:53;3.88;;;1.88;;
9716;SDS011;4897;43.570;27.832;2022-07-12T09:42:21;8.90;;;3.70;;
9716;SDS011;4897;43.570;27.832;2022-07-12T09:44:48;3.00;;;2.08;;
9716;SDS011;4897;43.570;27.832;2022-07-12T09:47:16;2.78;;;1.70;;
9716;SDS011;4897;43.570;27.832;2022-07-12T09:49:45;3.00;;;2.25;;
9716;SDS011;4897;43.570;27.832;2022-07-12T09:52:13;4.43;;;2.00;;
9716;SDS011;4897;43.570;27.832;2022-07-12T09:54:49;3.05;;;2.33;;
9716;SDS011;4897;43.570;27.832;2022-07-12T09:57:19;3.58;;;2.05;;
9716;SDS011;4897;43.570;27.832;2022-07-12T09:59:47;7.22;;;2.63;;
9716;SDS011;4897;43.570;27.832;2022-07-12T10:02:17;9.20;;;1.77;;
9716;SDS011;4897;43.570;27.832;2022-07-12T10:04:46;3.45;;;2.40;;
9716;SDS011;4897;43.570;27.832;2022-07-12T10:07:22;2.10;;;1.80;;
9716;SDS011;4897;43.570;27.832;2022-07-12T10:09:51;2.67;;;1.80;;
9716;SDS011;4897;43.570;27.832;2022-07-12T10:12:21;3.58;;;3.10;;
9716;SDS011;4897;43.570;27.832;2022-07-12T10:14:51;13.00;;;4.85;;
9716;SDS011;4897;43.570;27.832;2022-07-12T10:17:24;7.22;;;2.50;;
9716;SDS011;4897;43.570;27.832;2022-07-12T10:22:43;6.20;;;2.53;;
9716;SDS011;4897;43.570;27.832;2022-07-12T10:25:29;3.08;;;2.05;;
9716;SDS011;4897;43.570;27.832;2022-07-12T10:27:57;6.93;;;2.42;;
9716;SDS011;4897;43.570;27.832;2022-07-12T10:30:25;4.32;;;3.33;;
9716;SDS011;4897;43.570;27.832;2022-07-12T10:32:53;3.08;;;2.30;;
9716;SDS011;4897;43.570;27.832;2022-07-12T10:35:24;4.07;;;2.35;;
9716;SDS011;4897;43.570;27.832;2022-07-12T10:40:42;4.82;;;2.28;;
9716;SDS011;4897;43.570;27.832;2022-07-12T10:43:20;10.25;;;2.60;;
9716;SDS011;4897;43.570;27.832;2022-07-12T10:46:20;3.28;;;2.20;;
9716;SDS011;4897;43.570;27.832;2022-07-12T10:48:50;4.15;;;2.08;;
9716;SDS011;4897;43.570;27.832;2022-07-12T10:51:19;2.70;;;2.00;;
9716;SDS011;4897;43.570;27.832;2022-07-12T10:53:46;2.80;;;2.13;;
9716;SDS011;4897;43.570;27.832;2022-07-12T10:56:16;3.83;;;2.45;;
9716;SDS011;4897;43.570;27.832;2022-07-12T10:58:48;3.35;;;2.38;;
9716;SDS011;4897;43.570;27.832;2022-07-12T11:01:18;4.47;;;2.35;;
9716;SDS011;4897;43.570;27.832;2022-07-12T11:03:47;6.97;;;2.42;;
9716;SDS011;4897;43.570;27.832;2022-07-12T11:06:16;4.22;;;2.30;;
9716;SDS011;4897;43.570;27.832;2022-07-12T11:08:49;5.68;;;2.78;;
9716;SDS011;4897;43.570;27.832;2022-07-12T11:11:17;4.07;;;2.50;;
9716;SDS011;4897;43.570;27.832;2022-07-12T11:13:46;4.32;;;2.15;;
9716;SDS011;4897;43.570;27.832;2022-07-12T11:16:13;6.93;;;2.50;;
9716;SDS011;4897;43.570;27.832;2022-07-12T11:18:43;3.50;;;2.30;;
9716;SDS011;4897;43.570;27.832;2022-07-12T11:21:11;3.83;;;2.40;;
9716;SDS011;4897;43.570;27.832;2022-07-12T11:23:38;5.72;;;2.30;;
9716;SDS011;4897;43.570;27.832;2022-07-12T11:26:09;5.10;;;2.60;;
9716;SDS011;4897;43.570;27.832;2022-07-12T11:28:41;4.20;;;2.47;;
9716;SDS011;4897;43.570;27.832;2022-07-12T11:31:15;6.38;;;2.63;;
9716;SDS011;4897;43.570;27.832;2022-07-12T11:33:48;3.90;;;2.20;;
9716;SDS011;4897;43.570;27.832;2022-07-12T11:36:24;5.68;;;2.30;;
9716;SDS011;4897;43.570;27.832;2022-07-12T11:38:52;2.97;;;2.30;;
9716;SDS011;4897;43.570;27.832;2022-07-12T11:41:21;3.92;;;2.03;;
9716;SDS011;4897;43.570;27.832;2022-07-12T11:43:49;4.43;;;2.20;;
9716;SDS011;4897;43.570;27.832;2022-07-12T11:46:16;4.22;;;2.17;;
9716;SDS011;4897;43.570;27.832;2022-07-12T11:48:46;7.90;;;2.33;;
9716;SDS011;4897;43.570;27.832;2022-07-12T11:51:13;5.63;;;2.15;;
9716;SDS011;4897;43.570;27.832;2022-07-12T11:53:43;4.07;;;2.40;;
9716;SDS011;4897;43.570;27.832;2022-07-12T11:56:17;3.20;;;2.03;;
9716;SDS011;4897;43.570;27.832;2022-07-12T11:58:56;4.85;;;2.20;;
9716;SDS011;4897;43.570;27.832;2022-07-12T12:01:24;3.22;;;2.30;;
9716;SDS011;4897;43.570;27.832;2022-07-12T12:03:51;8.40;;;2.15;;
9716;SDS011;4897;43.570;27.832;2022-07-12T12:06:21;5.00;;;2.20;;
9716;SDS011;4897;43.570;27.832;2022-07-12T12:08:50;3.80;;;2.20;;
9716;SDS011;4897;43.570;27.832;2022-07-12T12:11:17;5.13;;;2.10;;
9716;SDS011;4897;43.570;27.832;2022-07-12T12:13:56;3.72;;;2.00;;
9716;SDS011;4897;43.570;27.832;2022-07-12T12:16:24;6.53;;;2.50;;
9716;SDS011;4897;43.570;27.832;2022-07-12T12:18:54;3.67;;;2.65;;
9716;SDS011;4897;43.570;27.832;2022-07-12T12:21:25;3.38;;;2.20;;
9716;SDS011;4897;43.570;27.832;2022-07-12T12:26:46;2.45;;;2.00;;
9716;SDS011;4897;43.570;27.832;2022-07-12T12:29:14;4.05;;;2.15;;
9716;SDS011;4897;43.570;27.832;2022-07-12T12:31:41;4.00;;;1.98;;
9716;SDS011;4897;43.570;27.832;2022-07-12T12:34:22;3.13;;;2.33;;
9716;SDS011;4897;43.570;27.832;2022-07-12T12:36:52;5.20;;;2.20;;
9716;SDS011;4897;43.570;27.832;2022-07-12T12:39:28;3.63;;;2.45;;
9716;SDS011;4897;43.570;27.832;2022-07-12T12:41:55;3.80;;;1.88;;
9716;SDS011;4897;43.570;27.832;2022-07-12T12:44:24;12.00;;;2.88;;
9716;SDS011;4897;43.570;27.832;2022-07-12T12:46:54;11.77;;;3.03;;
9716;SDS011;4897;43.570;27.832;2022-07-12T12:49:45;4.57;;;2.17;;
9716;SDS011;4897;43.570;27.832;2022-07-12T12:52:14;3.13;;;1.80;;
9716;SDS011;4897;43.570;27.832;2022-07-12T12:54:43;4.13;;;2.05;;
9716;SDS011;4897;43.570;27.832;2022-07-12T12:57:13;6.72;;;2.08;;
9716;SDS011;4897;43.570;27.832;2022-07-12T12:59:44;7.50;;;2.15;;
9716;SDS011;4897;43.570;27.832;2022-07-12T13:02:11;2.03;;;1.83;;
9716;SDS011;4897;43.570;27.832;2022-07-12T13:04:39;6.05;;;2.17;;
9716;SDS011;4897;43.570;27.832;2022-07-12T13:07:06;3.60;;;1.85;;
9716;SDS011;4897;43.570;27.832;2022-07-12T13:09:33;9.90;;;2.53;;
9716;SDS011;4897;43.570;27.832;2022-07-12T13:12:00;3.33;;;2.13;;
9716;SDS011;4897;43.570;27.832;2022-07-12T13:14:27;2.80;;;1.83;;
9716;SDS011;4897;43.570;27.832;2022-07-12T13:16:56;3.45;;;2.13;;
9716;SDS011;4897;43.570;27.832;2022-07-12T13:19:23;5.78;;;1.70;;
9716;SDS011;4897;43.570;27.832;2022-07-12T13:21:50;2.00;;;1.63;;
9716;SDS011;4897;43.570;27.832;2022-07-12T13:24:22;5.45;;;1.80;;
9716;SDS011;4897;43.570;27.832;2022-07-12T13:26:49;5.97;;;2.05;;
9716;SDS011;4897;43.570;27.832;2022-07-12T13:29:16;4.93;;;2.20;;
9716;SDS011;4897;43.570;27.832;2022-07-12T13:31:43;2.63;;;2.00;;
9716;SDS011;4897;43.570;27.832;2022-07-12T13:34:11;2.20;;;1.90;;
9716;SDS011;4897;43.570;27.832;2022-07-12T13:36:38;4.32;;;3.90;;
9716;SDS011;4897;43.570;27.832;2022-07-12T13:39:05;13.65;;;2.55;;
9716;SDS011;4897;43.570;27.832;2022-07-12T13:41:49;6.72;;;2.35;;
9716;SDS011;4897;43.570;27.832;2022-07-12T13:44:17;3.10;;;2.17;;
9716;SDS011;4897;43.570;27.832;2022-07-12T13:46:44;3.75;;;2.20;;
9716;SDS011;4897;43.570;27.832;2022-07-12T13:49:12;2.50;;;2.10;;
9716;SDS011;4897;43.570;27.832;2022-07-12T13:51:39;5.35;;;2.00;;
9716;SDS011;4897;43.570;27.832;2022-07-12T13:54:06;4.25;;;2.08;;
9716;SDS011;4897;43.570;27.832;2022-07-12T13:56:34;3.22;;;2.30;;
9716;SDS011;4897;43.570;27.832;2022-07-12T13:59:01;4.75;;;3.42;;
9716;SDS011;4897;43.570;27.832;2022-07-12T14:01:28;4.75;;;3.50;;
9716;SDS011;4897;43.570;27.832;2022-07-12T14:03:55;7.03;;;2.70;;
9716;SDS011;4897;43.570;27.832;2022-07-12T14:06:24;4.13;;;2.20;;
9716;SDS011;4897;43.570;27.832;2022-07-12T14:08:53;6.13;;;2.45;;
9716;SDS011;4897;43.570;27.832;2022-07-12T14:11:21;9.10;;;2.88;;
9716;SDS011;4897;43.570;27.832;2022-07-12T14:13:50;4.93;;;2.70;;
9716;SDS011;4897;43.570;27.832;2022-07-12T14:16:17;5.47;;;3.58;;
9716;SDS011;4897;43.570;27.832;2022-07-12T14:18:44;13.77;;;2.90;;
9716;SDS011;4897;43.570;27.832;2022-07-12T14:21:12;7.20;;;2.90;;
9716;SDS011;4897;43.570;27.832;2022-07-12T14:23:43;9.98;;;2.95;;
9716;SDS011;4897;43.570;27.832;2022-07-12T14:26:10;9.20;;;2.85;;
9716;SDS011;4897;43.570;27.832;2022-07-12T14:28:37;8.82;;;2.60;;
9716;SDS011;4897;43.570;27.832;2022-07-12T14:31:04;9.35;;;2.38;;
9716;SDS011;4897;43.570;27.832;2022-07-12T14:33:33;5.70;;;2.83;;
9716;SDS011;4897;43.570;27.832;2022-07-12T14:36:00;11.50;;;3.90;;
9716;SDS011;4897;43.570;27.832;2022-07-12T14:38:27;11.10;;;3.88;;
9716;SDS011;4897;43.570;27.832;2022-07-12T14:40:55;7.20;;;3.50;;
9716;SDS011;4897;43.570;27.832;2022-07-12T14:43:23;5.80;;;2.67;;
9716;SDS011;4897;43.570;27.832;2022-07-12T14:45:50;9.85;;;3.45;;
9716;SDS011;4897;43.570;27.832;2022-07-12T14:48:17;10.82;;;3.80;;
9716;SDS011;4897;43.570;27.832;2022-07-12T14:50:44;10.43;;;4.07;;
9716;SDS011;4897;43.570;27.832;2022-07-12T14:53:12;10.68;;;4.25;;
9716;SDS011;4897;43.570;27.832;2022-07-12T14:55:41;4.72;;;3.47;;
9716;SDS011;4897;43.570;27.832;2022-07-12T14:58:09;8.57;;;5.10;;
9716;SDS011;4897;43.570;27.832;2022-07-12T15:00:36;11.82;;;6.72;;
9716;SDS011;4897;43.570;27.832;2022-07-12T15:03:03;7.88;;;4.75;;
9716;SDS011;4897;43.570;27.832;2022-07-12T15:05:31;14.23;;;3.13;;
9716;SDS011;4897;43.570;27.832;2022-07-12T15:08:00;4.40;;;2.72;;
9716;SDS011;4897;43.570;27.832;2022-07-12T15:10:27;11.98;;;4.35;;
9716;SDS011;4897;43.570;27.832;2022-07-12T15:12:54;4.72;;;2.63;;
9716;SDS011;4897;43.570;27.832;2022-07-12T15:15:22;7.82;;;2.45;;
9716;SDS011;4897;43.570;27.832;2022-07-12T15:17:49;9.25;;;2.90;;